createdAt,value
2018-11-05T00:00:39.942Z,6.47
2018-11-05T00:03:08.028Z,6.90
2018-11-05T00:05:35.778Z,6.13
2018-11-05T00:08:03.734Z,6.37
2018-11-05T00:10:31.445Z,6.20
2018-11-05T00:12:59.218Z,5.73
2018-11-05T00:15:26.996Z,5.47
2018-11-05T00:17:54.757Z,5.70
2018-11-05T00:20:22.503Z,5.73
2018-11-05T00:22:50.230Z,5.47
2018-11-05T00:25:17.983Z,5.00
2018-11-05T00:27:45.901Z,5.47
2018-11-05T00:30:14.359Z,5.93
2018-11-05T00:32:42.634Z,6.20
2018-11-05T00:35:10.567Z,5.37
2018-11-05T00:37:38.305Z,4.57
2018-11-05T00:40:07.914Z,5.53
2018-11-05T00:42:35.650Z,5.37
2018-11-05T00:45:04.007Z,5.57
2018-11-05T00:47:31.732Z,5.43
2018-11-05T00:49:59.474Z,5.57
2018-11-05T00:52:27.214Z,5.47
2018-11-05T00:54:54.946Z,5.53
2018-11-05T00:57:22.665Z,5.00
2018-11-05T00:59:50.430Z,5.30
2018-11-05T01:02:18.167Z,4.77
2018-11-05T01:04:45.890Z,5.23
2018-11-05T01:07:13.614Z,4.83
2018-11-05T01:09:41.371Z,4.63
2018-11-05T01:12:09.117Z,4.77
2018-11-05T01:14:36.843Z,5.20
2018-11-05T01:17:04.835Z,4.47
2018-11-05T01:19:32.553Z,4.30
2018-11-05T01:22:00.292Z,5.20
2018-11-05T01:24:28.022Z,4.37
2018-11-05T01:26:55.746Z,4.93
2018-11-05T01:29:23.486Z,5.10
2018-11-05T01:31:51.454Z,4.47
2018-11-05T01:34:19.179Z,5.07
2018-11-05T01:36:46.906Z,4.57
2018-11-05T01:39:14.637Z,4.40
2018-11-05T01:41:42.357Z,4.90
2018-11-05T01:44:10.082Z,3.90
2018-11-05T01:46:37.798Z,4.23
2018-11-05T01:49:05.586Z,4.70
2018-11-05T01:51:33.350Z,4.40
2018-11-05T01:54:01.087Z,4.23
2018-11-05T01:56:28.861Z,4.73
2018-11-05T01:58:56.599Z,4.63
2018-11-05T02:01:24.338Z,3.93
2018-11-05T02:03:52.072Z,4.70
2018-11-05T02:06:19.838Z,4.20
2018-11-05T02:08:47.562Z,4.80
2018-11-05T02:11:15.276Z,4.00
2018-11-05T02:13:43.013Z,4.40
2018-11-05T02:16:10.857Z,4.50
2018-11-05T02:18:38.490Z,4.97
2018-11-05T02:21:06.214Z,4.80
2018-11-05T02:23:33.943Z,4.30
2018-11-05T02:26:01.668Z,4.70
2018-11-05T02:28:29.398Z,5.40
2018-11-05T02:30:57.118Z,5.00
2018-11-05T02:33:24.847Z,4.27
2018-11-05T02:35:52.563Z,5.23
2018-11-05T02:38:20.391Z,4.37
2018-11-05T02:40:48.103Z,4.20
2018-11-05T02:43:15.847Z,4.57
2018-11-05T02:45:43.555Z,4.23
2018-11-05T02:48:11.282Z,4.13
2018-11-05T02:50:39.003Z,4.00
2018-11-05T02:53:06.723Z,4.40
2018-11-05T02:55:34.459Z,4.03
2018-11-05T02:58:02.175Z,4.10
2018-11-05T03:00:29.902Z,4.27
2018-11-05T03:02:57.732Z,4.20
2018-11-05T03:05:25.475Z,4.33
2018-11-05T03:07:53.203Z,4.10
2018-11-05T03:10:20.934Z,4.00
2018-11-05T03:12:48.855Z,4.43
2018-11-05T03:15:17.498Z,4.13
2018-11-05T03:17:45.254Z,4.30
2018-11-05T03:20:13.958Z,4.20
2018-11-05T03:22:42.186Z,4.17
2018-11-05T03:25:09.998Z,4.87
2018-11-05T03:27:38.128Z,5.07
2018-11-05T03:30:08.493Z,4.33
2018-11-05T03:32:36.264Z,4.40
2018-11-05T03:35:04.774Z,4.37
2018-11-05T03:37:32.491Z,4.57
2018-11-05T03:40:00.231Z,4.53
2018-11-05T03:42:27.976Z,4.60
2018-11-05T03:44:55.690Z,4.30
2018-11-05T03:47:23.431Z,4.97
2018-11-05T03:49:51.162Z,5.10
2018-11-05T03:52:18.906Z,5.10
2018-11-05T03:54:46.633Z,5.23
2018-11-05T03:57:14.373Z,4.63
2018-11-05T03:59:42.084Z,4.70
2018-11-05T04:02:09.856Z,5.20
2018-11-05T04:04:37.578Z,5.03
2018-11-05T04:07:05.511Z,5.30
2018-11-05T04:09:33.239Z,5.20
2018-11-05T04:12:00.976Z,4.50
2018-11-05T04:14:28.728Z,4.93
2018-11-05T04:16:56.474Z,5.13
2018-11-05T04:19:24.203Z,6.30
2018-11-05T04:21:51.926Z,5.80
2018-11-05T04:24:19.651Z,6.87
2018-11-05T04:26:47.385Z,6.30
2018-11-05T04:29:15.114Z,7.07
2018-11-05T04:31:42.862Z,15.30
2018-11-05T04:34:11.692Z,7.20
2018-11-05T04:36:39.448Z,7.07
2018-11-05T04:39:10.522Z,7.73
2018-11-05T04:41:38.667Z,7.00
2018-11-05T04:44:06.546Z,6.77
2018-11-05T04:46:34.407Z,5.63
2018-11-05T04:49:02.179Z,6.60
2018-11-05T04:51:30.157Z,7.37
2018-11-05T04:53:57.898Z,7.97
2018-11-05T04:56:25.630Z,7.20
2018-11-05T04:58:53.354Z,6.80
2018-11-05T05:01:21.107Z,6.80
2018-11-05T05:03:48.841Z,6.67
2018-11-05T05:06:16.578Z,6.90
2018-11-05T05:08:44.314Z,6.97
2018-11-05T05:11:12.056Z,6.57
2018-11-05T05:13:39.794Z,6.63
2018-11-05T05:16:07.552Z,6.43
2018-11-05T05:18:35.286Z,7.90
2018-11-05T05:21:03.038Z,6.77
2018-11-05T05:23:30.750Z,7.10
2018-11-05T05:25:58.487Z,8.73
2018-11-05T05:28:26.238Z,7.30
2018-11-05T05:30:53.971Z,7.50
2018-11-05T05:33:21.755Z,7.23
2018-11-05T05:35:49.483Z,7.27
2018-11-05T05:38:17.227Z,6.83
2018-11-05T05:40:45.021Z,7.50
2018-11-05T05:43:12.748Z,7.27
2018-11-05T05:45:40.537Z,6.57
2018-11-05T05:48:08.317Z,7.00
2018-11-05T05:50:36.063Z,6.87
2018-11-05T05:53:03.797Z,7.03
2018-11-05T05:55:33.093Z,6.73
2018-11-05T05:58:00.827Z,7.17
2018-11-05T06:00:28.549Z,6.90
2018-11-05T06:02:56.264Z,7.10
2018-11-05T06:05:24.078Z,7.50
2018-11-05T06:07:51.813Z,7.67
2018-11-05T06:10:19.541Z,7.27
2018-11-05T06:12:47.267Z,8.13
2018-11-05T06:15:16.050Z,7.97
2018-11-05T06:17:43.818Z,8.77
2018-11-05T06:20:16.016Z,8.73
2018-11-05T06:22:44.618Z,8.07
2018-11-05T06:25:12.406Z,7.47
2018-11-05T06:27:40.188Z,8.00
2018-11-05T06:30:11.114Z,8.80
2018-11-05T06:32:40.246Z,8.73
2018-11-05T06:35:09.033Z,9.83
2018-11-05T06:37:37.098Z,9.13
2018-11-05T06:40:05.225Z,10.70
2018-11-05T06:42:32.966Z,11.07
2018-11-05T06:45:00.761Z,10.63
2018-11-05T06:47:29.207Z,11.90
2018-11-05T06:49:56.923Z,13.93
2018-11-05T06:52:24.674Z,12.20
2018-11-05T06:54:52.442Z,10.57
2018-11-05T06:57:20.158Z,9.27
2018-11-05T06:59:47.931Z,10.50
2018-11-05T07:02:15.712Z,10.20
2018-11-05T07:04:43.449Z,12.33
2018-11-05T07:07:17.855Z,10.27
2018-11-05T07:09:45.658Z,14.57
2018-11-05T07:14:57.158Z,12.97
2018-11-05T07:17:24.915Z,9.33
2018-11-05T07:19:52.677Z,9.13
2018-11-05T07:22:20.464Z,9.87
2018-11-05T07:24:48.214Z,8.47
2018-11-05T07:27:15.974Z,8.60
2018-11-05T07:29:43.710Z,8.60
2018-11-05T07:32:11.474Z,9.90
2018-11-05T07:34:39.243Z,11.40
2018-11-05T07:37:07.006Z,12.60
2018-11-05T07:39:34.774Z,10.67
2018-11-05T07:42:02.537Z,9.63
2018-11-05T07:44:30.271Z,9.40
2018-11-05T07:46:58.027Z,9.07
2018-11-05T07:49:25.775Z,8.97
2018-11-05T07:51:53.534Z,8.17
2018-11-05T07:54:21.254Z,8.33
2018-11-05T07:56:49.112Z,9.50
2018-11-05T07:59:16.815Z,9.10
2018-11-05T08:01:44.574Z,9.80
2018-11-05T08:04:12.351Z,10.80
2018-11-05T08:06:40.095Z,8.93
2018-11-05T08:09:09.922Z,11.27
2018-11-05T08:11:37.999Z,10.67
2018-11-05T08:14:06.045Z,8.27
2018-11-05T08:16:33.785Z,8.30
2018-11-05T08:19:01.594Z,8.13
2018-11-05T08:21:29.335Z,8.80
2018-11-05T08:23:57.065Z,8.53
2018-11-05T08:26:24.836Z,8.20
2018-11-05T08:28:52.646Z,8.70
2018-11-05T08:31:20.815Z,9.27
2018-11-05T08:33:48.562Z,9.27
2018-11-05T08:36:16.330Z,9.20
2018-11-05T08:38:44.154Z,9.33
2018-11-05T08:41:11.919Z,8.87
2018-11-05T08:43:40.576Z,9.17
2018-11-05T08:46:08.306Z,8.07
2018-11-05T08:48:36.098Z,8.50
2018-11-05T08:51:04.098Z,9.90
2018-11-05T08:53:31.710Z,10.03
2018-11-05T08:55:59.473Z,9.13
2018-11-05T08:58:27.204Z,9.93
2018-11-05T09:01:00.332Z,9.60
2018-11-05T09:03:28.041Z,9.23
2018-11-05T09:05:55.770Z,8.37
2018-11-05T09:08:23.794Z,9.10
2018-11-05T09:10:51.797Z,8.10
2018-11-05T09:13:19.286Z,8.53
2018-11-05T09:15:47.030Z,9.03
2018-11-05T09:18:14.780Z,15.10
2018-11-05T09:20:42.578Z,23.57
2018-11-05T09:23:10.351Z,12.50
2018-11-05T09:25:38.146Z,10.77
2018-11-05T09:28:06.344Z,11.90
2018-11-05T09:30:34.067Z,11.07
2018-11-05T09:33:01.803Z,11.33
2018-11-05T09:35:29.538Z,10.17
2018-11-05T09:37:57.252Z,10.87
2018-11-05T09:40:25.034Z,11.37
2018-11-05T09:42:53.261Z,13.17
2018-11-05T09:45:23.236Z,16.00
2018-11-05T09:47:51.090Z,13.23
2018-11-05T09:50:19.347Z,14.83
2018-11-05T09:52:47.061Z,16.30
2018-11-05T09:55:15.322Z,17.77
2018-11-05T09:57:43.082Z,16.70
2018-11-05T10:00:16.888Z,17.53
2018-11-05T10:02:50.096Z,16.93
2018-11-05T10:05:17.846Z,18.53
2018-11-05T10:07:45.850Z,17.53
2018-11-05T10:10:14.318Z,19.90
2018-11-05T10:12:42.350Z,22.97
2018-11-05T10:15:11.269Z,25.20
2018-11-05T10:17:39.335Z,24.70
2018-11-05T10:20:10.679Z,27.50
2018-11-05T10:22:38.435Z,29.73
2018-11-05T10:25:07.776Z,26.23
2018-11-05T10:27:35.366Z,29.97
2018-11-05T10:30:03.471Z,29.50
2018-11-05T10:32:31.322Z,29.47
2018-11-05T10:34:59.166Z,25.77
2018-11-05T10:37:26.923Z,27.23
2018-11-05T10:39:54.678Z,28.43
2018-11-05T10:42:22.462Z,28.03
2018-11-05T10:44:50.193Z,34.93
2018-11-05T10:47:17.943Z,29.77
2018-11-05T10:49:45.687Z,32.10
2018-11-05T10:52:13.642Z,31.93
2018-11-05T10:54:41.160Z,25.33
2018-11-05T10:57:08.899Z,29.40
2018-11-05T10:59:36.685Z,27.60
2018-11-05T11:02:10.062Z,27.20
2018-11-05T11:04:37.786Z,26.30
2018-11-05T11:07:05.556Z,34.97
2018-11-05T11:09:33.334Z,39.73
2018-11-05T11:12:01.027Z,43.50
2018-11-05T11:14:29.337Z,45.70
2018-11-05T11:16:57.211Z,58.23
2018-11-05T11:19:25.571Z,42.17
2018-11-05T11:21:53.366Z,39.20
2018-11-05T11:24:21.108Z,39.10
2018-11-05T11:26:48.854Z,40.50
2018-11-05T11:29:16.636Z,30.70
2018-11-05T11:31:44.447Z,32.77
2018-11-05T11:34:12.179Z,28.30
2018-11-05T11:36:40.018Z,29.80
2018-11-05T11:39:09.805Z,27.63
2018-11-05T11:41:37.555Z,26.87
2018-11-05T11:44:05.896Z,23.13
2018-11-05T11:46:33.851Z,25.23
2018-11-05T11:49:01.563Z,21.80
2018-11-05T11:51:29.283Z,23.27
2018-11-05T11:53:57.043Z,26.00
2018-11-05T11:56:24.788Z,26.43
2018-11-05T11:58:52.525Z,24.80
2018-11-05T12:01:20.262Z,24.47
2018-11-05T12:03:48.019Z,23.33
2018-11-05T12:06:15.755Z,22.67
2018-11-05T12:08:43.483Z,25.37
2018-11-05T12:11:11.202Z,27.23
2018-11-05T12:13:38.926Z,30.10
2018-11-05T12:16:06.688Z,28.73
2018-11-05T12:18:34.405Z,31.20
2018-11-05T12:21:02.135Z,29.37
2018-11-05T12:23:29.934Z,27.73
2018-11-05T12:25:57.690Z,25.77
2018-11-05T12:28:25.515Z,33.07
2018-11-05T12:30:53.226Z,36.43
2018-11-05T12:33:20.970Z,34.80
2018-11-05T12:35:48.715Z,36.00
2018-11-05T12:38:16.475Z,35.77
2018-11-05T12:40:44.230Z,36.73
2018-11-05T12:43:11.965Z,37.17
2018-11-05T12:45:39.686Z,37.10
2018-11-05T12:48:07.463Z,31.33
2018-11-05T12:50:35.285Z,30.43
2018-11-05T12:53:02.996Z,30.37
2018-11-05T12:55:30.818Z,32.97
2018-11-05T12:57:58.638Z,32.37
2018-11-05T13:00:26.446Z,30.73
2018-11-05T13:02:59.580Z,31.93
2018-11-05T13:05:28.329Z,34.90
2018-11-05T13:07:56.151Z,35.13
2018-11-05T13:10:24.106Z,36.50
2018-11-05T13:12:51.977Z,34.60
2018-11-05T13:15:19.959Z,36.13
2018-11-05T13:17:47.610Z,33.30
2018-11-05T13:20:17.454Z,34.30
2018-11-05T13:22:45.435Z,37.63
2018-11-05T13:25:13.192Z,35.50
2018-11-05T13:27:42.410Z,36.73
2018-11-05T13:30:11.131Z,32.97
2018-11-05T13:32:39.435Z,30.40
2018-11-05T13:35:08.847Z,28.63
2018-11-05T13:37:36.934Z,29.53
2018-11-05T13:40:05.255Z,29.77
2018-11-05T13:42:33.086Z,27.43
2018-11-05T13:45:00.874Z,27.37
2018-11-05T13:47:29.148Z,26.83
2018-11-05T13:49:56.790Z,24.47
2018-11-05T13:52:24.399Z,23.07
2018-11-05T13:54:52.402Z,22.93
2018-11-05T13:57:20.212Z,23.07
2018-11-05T13:59:47.967Z,23.17
2018-11-05T14:02:15.734Z,20.00
2018-11-05T14:04:43.473Z,18.67
2018-11-05T14:07:11.247Z,18.90
2018-11-05T14:09:39.007Z,19.87
2018-11-05T14:12:06.739Z,20.77
2018-11-05T14:14:34.483Z,19.63
2018-11-05T14:17:02.259Z,20.60
2018-11-05T14:19:29.966Z,21.40
2018-11-05T14:21:57.703Z,20.83
2018-11-05T14:24:25.439Z,22.17
2018-11-05T14:26:53.146Z,23.00
2018-11-05T14:29:21.418Z,24.90
2018-11-05T14:31:48.638Z,24.83
2018-11-05T14:34:16.366Z,25.40
2018-11-05T14:36:44.190Z,25.53
2018-11-05T14:39:13.392Z,21.33
2018-11-05T14:41:41.510Z,21.53
2018-11-05T14:44:09.687Z,23.37
2018-11-05T14:46:37.415Z,23.00
2018-11-05T14:49:05.280Z,24.77
2018-11-05T14:51:33.387Z,24.80
2018-11-05T14:54:01.096Z,23.93
2018-11-05T14:56:28.838Z,24.77
2018-11-05T14:58:56.703Z,25.67
2018-11-05T15:01:24.460Z,26.00
2018-11-05T15:03:52.411Z,28.50
2018-11-05T15:06:20.191Z,28.30
2018-11-05T15:08:47.974Z,27.53
2018-11-05T15:11:15.746Z,29.03
2018-11-05T15:13:44.082Z,26.40
2018-11-05T15:16:11.804Z,25.63
2018-11-05T15:18:39.632Z,25.23
2018-11-05T15:21:07.604Z,25.80
2018-11-05T15:23:35.343Z,27.73
2018-11-05T15:26:03.158Z,27.03
2018-11-05T15:28:30.883Z,26.27
2018-11-05T15:30:58.689Z,28.27
2018-11-05T15:33:26.416Z,28.23
2018-11-05T15:35:54.160Z,30.20
2018-11-05T15:38:22.137Z,33.53
2018-11-05T15:40:49.870Z,31.77
2018-11-05T15:43:17.596Z,34.87
2018-11-05T15:45:45.322Z,36.77
2018-11-05T15:48:13.841Z,38.20
2018-11-05T15:50:41.567Z,38.20
2018-11-05T15:53:09.586Z,39.93
2018-11-05T15:55:37.078Z,40.43
2018-11-05T15:58:05.155Z,43.57
2018-11-05T16:00:32.909Z,44.87
2018-11-05T16:03:01.502Z,47.00
2018-11-05T16:05:29.255Z,48.83
2018-11-05T16:07:56.994Z,48.77
2018-11-05T16:10:25.037Z,50.17
2018-11-05T16:12:53.061Z,49.73
2018-11-05T16:15:20.824Z,47.10
2018-11-05T16:17:48.542Z,48.27
2018-11-05T16:20:17.502Z,56.33
2018-11-05T16:22:45.794Z,63.27
2018-11-05T16:25:13.536Z,59.37
2018-11-05T16:27:41.587Z,56.37
2018-11-05T16:30:11.131Z,58.93
2018-11-05T16:32:38.900Z,53.97
2018-11-05T16:35:06.858Z,54.87
2018-11-05T16:37:34.533Z,54.53
2018-11-05T16:40:02.646Z,56.00
2018-11-05T16:42:30.315Z,55.27
2018-11-05T16:44:58.177Z,56.07
2018-11-05T16:47:25.922Z,60.10
2018-11-05T16:49:53.658Z,60.67
2018-11-05T16:52:21.381Z,60.43
2018-11-05T16:54:49.114Z,65.50
2018-11-05T16:57:16.889Z,63.97
2018-11-05T16:59:44.616Z,63.83
2018-11-05T17:02:13.703Z,65.70
2018-11-05T17:04:42.029Z,62.13
2018-11-05T17:07:09.863Z,62.63
2018-11-05T17:09:37.866Z,60.87
2018-11-05T17:12:06.031Z,60.50
2018-11-05T17:14:33.789Z,59.10
2018-11-05T17:17:01.798Z,60.17
2018-11-05T17:19:30.038Z,57.73
2018-11-05T17:21:57.935Z,57.63
2018-11-05T17:24:25.878Z,57.80
2018-11-05T17:26:53.603Z,59.87
2018-11-05T17:29:21.367Z,57.67
2018-11-05T17:31:49.119Z,57.90
2018-11-05T17:34:16.853Z,56.33
2018-11-05T17:36:44.594Z,56.67
2018-11-05T17:39:13.046Z,54.43
2018-11-05T17:41:41.129Z,57.40
2018-11-05T17:44:10.238Z,55.97
2018-11-05T17:46:38.059Z,56.67
2018-11-05T17:49:06.484Z,55.00
2018-11-05T17:51:34.229Z,54.53
2018-11-05T17:54:02.091Z,54.10
2018-11-05T17:56:30.019Z,54.00
2018-11-05T17:58:57.740Z,55.77
2018-11-05T18:01:25.798Z,58.07
2018-11-05T18:03:53.551Z,52.83
2018-11-05T18:06:21.315Z,57.60
2018-11-05T18:08:49.101Z,57.23
2018-11-05T18:11:16.915Z,57.90
2018-11-05T18:13:44.659Z,56.13
2018-11-05T18:16:12.383Z,54.37
2018-11-05T18:18:40.562Z,50.77
2018-11-05T18:21:08.390Z,53.50
2018-11-05T18:23:36.197Z,57.10
2018-11-05T18:26:03.987Z,54.03
2018-11-05T18:28:31.731Z,53.37
2018-11-05T18:30:59.491Z,53.43
2018-11-05T18:33:27.204Z,54.33
2018-11-05T18:35:54.958Z,52.80
2018-11-05T18:38:22.687Z,53.77
2018-11-05T18:40:50.419Z,55.30
2018-11-05T18:43:18.147Z,54.80
2018-11-05T18:45:45.895Z,52.60
2018-11-05T18:48:13.631Z,54.00
2018-11-05T18:50:41.374Z,54.27
2018-11-05T18:53:09.134Z,54.30
2018-11-05T18:55:36.850Z,54.77
2018-11-05T18:58:04.706Z,52.90
2018-11-05T19:00:32.435Z,53.90
2018-11-05T19:03:00.185Z,54.30
2018-11-05T19:05:28.839Z,53.80
2018-11-05T19:07:56.740Z,56.27
2018-11-05T19:10:24.466Z,51.47
2018-11-05T19:12:52.879Z,54.27
2018-11-05T19:15:20.766Z,52.43
2018-11-05T19:17:49.171Z,53.53
2018-11-05T19:20:17.294Z,53.40
2018-11-05T19:22:45.353Z,55.13
2018-11-05T19:25:13.846Z,54.67
2018-11-05T19:27:41.907Z,54.93
2018-11-05T19:30:16.152Z,56.40
2018-11-05T19:32:44.309Z,54.90
2018-11-05T19:35:12.399Z,53.20
2018-11-05T19:37:40.755Z,53.30
2018-11-05T19:40:10.171Z,49.77
2018-11-05T19:42:38.215Z,51.53
2018-11-05T19:45:08.023Z,51.60
2018-11-05T19:47:35.772Z,51.10
2018-11-05T19:50:03.782Z,51.73
2018-11-05T19:52:31.539Z,51.37
2018-11-05T19:54:59.373Z,48.13
2018-11-05T19:57:27.119Z,49.67
2018-11-05T19:59:54.835Z,47.67
2018-11-05T20:02:27.112Z,50.23
2018-11-05T20:04:55.053Z,49.30
2018-11-05T20:07:22.787Z,47.43
2018-11-05T20:09:50.514Z,46.63
2018-11-05T20:12:18.239Z,43.27
2018-11-05T20:14:46.026Z,44.43
2018-11-05T20:17:13.760Z,44.97
2018-11-05T20:19:41.615Z,46.27
2018-11-05T20:22:09.381Z,45.27
2018-11-05T20:24:37.079Z,45.43
2018-11-05T20:27:05.005Z,47.17
2018-11-05T20:29:32.760Z,45.73
2018-11-05T20:32:00.677Z,44.70
2018-11-05T20:34:28.452Z,43.83
2018-11-05T20:36:56.027Z,44.83
2018-11-05T20:39:23.747Z,44.20
2018-11-05T20:41:51.471Z,44.33
2018-11-05T20:44:19.210Z,46.60
2018-11-05T20:46:47.220Z,45.37
2018-11-05T20:49:14.856Z,46.50
2018-11-05T20:51:42.578Z,46.03
2018-11-05T20:54:10.344Z,46.10
2018-11-05T20:56:38.319Z,45.20
2018-11-05T20:59:06.039Z,45.40
2018-11-05T21:01:33.770Z,44.63
2018-11-05T21:04:01.513Z,44.40
2018-11-05T21:06:29.232Z,42.33
2018-11-05T21:08:56.949Z,43.63
2018-11-05T21:11:24.671Z,43.40
2018-11-05T21:13:52.385Z,42.40
2018-11-05T21:16:20.087Z,42.83
2018-11-05T21:18:47.805Z,42.90
2018-11-05T21:21:15.631Z,41.60
2018-11-05T21:23:43.384Z,39.47
2018-11-05T21:26:11.108Z,40.10
2018-11-05T21:28:38.841Z,41.77
2018-11-05T21:31:06.566Z,39.30
2018-11-05T21:33:34.293Z,39.37
2018-11-05T21:36:02.019Z,39.90
2018-11-05T21:38:29.755Z,39.67
2018-11-05T21:40:57.472Z,38.10
2018-11-05T21:43:25.191Z,39.40
2018-11-05T21:45:52.904Z,36.90
2018-11-05T21:48:20.659Z,38.30
2018-11-05T21:50:48.374Z,41.00
2018-11-05T21:53:16.098Z,38.17
2018-11-05T21:55:43.838Z,38.17
2018-11-05T21:58:11.569Z,39.80
2018-11-05T22:00:39.278Z,39.47
2018-11-05T22:03:12.435Z,42.47
2018-11-05T22:05:40.165Z,40.93
2018-11-05T22:08:07.898Z,40.17
2018-11-05T22:10:35.638Z,39.10
2018-11-05T22:13:03.482Z,39.63
2018-11-05T22:15:47.918Z,37.80
2018-11-05T22:18:16.717Z,37.00
2018-11-05T22:20:44.482Z,36.43
2018-11-05T22:23:12.202Z,36.93
2018-11-05T22:25:39.934Z,34.70
2018-11-05T22:28:07.652Z,35.27
2018-11-05T22:30:35.415Z,36.60
2018-11-05T22:33:03.304Z,33.73
2018-11-05T22:35:31.120Z,34.50
2018-11-05T22:37:58.939Z,32.87
2018-11-05T22:40:26.627Z,31.93
2018-11-05T22:42:54.592Z,33.20
2018-11-05T22:45:22.327Z,32.43
2018-11-05T22:47:50.099Z,31.73
2018-11-05T22:50:17.855Z,32.33
2018-11-05T22:52:45.598Z,31.37
2018-11-05T22:55:13.341Z,31.93
2018-11-05T22:57:41.073Z,32.93
2018-11-05T23:00:19.757Z,32.30
2018-11-05T23:02:53.106Z,31.13
2018-11-05T23:05:21.085Z,32.33
2018-11-05T23:07:49.461Z,31.80
2018-11-05T23:10:17.169Z,31.53
2018-11-05T23:12:44.999Z,31.23
2018-11-05T23:15:12.730Z,33.60
2018-11-05T23:17:40.554Z,31.57
2018-11-05T23:20:09.101Z,31.83
2018-11-05T23:22:36.846Z,30.07
2018-11-05T23:25:04.797Z,30.83
2018-11-05T23:27:32.610Z,30.63
2018-11-05T23:30:00.554Z,31.70
2018-11-05T23:32:28.283Z,29.33
2018-11-05T23:34:56.039Z,30.00
2018-11-05T23:37:23.803Z,30.13
2018-11-05T23:39:51.524Z,31.23
2018-11-05T23:42:19.251Z,29.37
2018-11-05T23:44:46.955Z,31.30
2018-11-05T23:47:14.757Z,30.30
2018-11-05T23:49:42.471Z,31.13
2018-11-05T23:52:10.263Z,31.10
2018-11-05T23:54:37.947Z,29.33
2018-11-05T23:57:05.863Z,30.07
2018-11-05T23:59:33.606Z,31.87
